createdAt,value
2023-05-20T00:01:03.020Z,63.90
2023-05-20T00:03:30.826Z,64.60
2023-05-20T00:05:58.471Z,64.10
2023-05-20T00:08:26.151Z,63.80
2023-05-20T00:10:53.689Z,64.10
2023-05-20T00:13:21.282Z,63.90
2023-05-20T00:15:48.856Z,63.60
2023-05-20T00:18:16.501Z,64.00
2023-05-20T00:20:44.232Z,63.40
2023-05-20T00:23:11.822Z,63.40
2023-05-20T00:25:39.487Z,63.40
2023-05-20T00:28:10.000Z,63.30
2023-05-20T00:30:42.819Z,63.60
2023-05-20T00:33:10.638Z,64.00
2023-05-20T00:35:38.149Z,63.80
2023-05-20T00:38:06.069Z,63.50
2023-05-20T00:40:33.659Z,63.40
2023-05-20T00:43:04.058Z,64.00
2023-05-20T00:45:32.434Z,63.40
2023-05-20T00:48:01.925Z,63.00
2023-05-20T00:50:29.600Z,63.30
2023-05-20T00:52:57.338Z,63.40
2023-05-20T00:55:26.110Z,63.30
2023-05-20T00:57:54.771Z,63.90
2023-05-20T01:00:22.357Z,63.60
2023-05-20T01:02:50.204Z,63.90
2023-05-20T01:05:17.900Z,63.30
2023-05-20T01:07:45.732Z,63.40
2023-05-20T01:10:13.399Z,63.80
2023-05-20T01:12:49.052Z,63.50
2023-05-20T01:15:18.007Z,63.30
2023-05-20T01:17:52.112Z,63.50
2023-05-20T01:20:21.547Z,63.10
2023-05-20T01:22:50.463Z,63.40
2023-05-20T01:25:17.989Z,63.30
2023-05-20T01:27:47.243Z,63.40
2023-05-20T01:30:15.968Z,63.30
2023-05-20T01:32:54.274Z,63.30
2023-05-20T01:35:23.488Z,63.20
2023-05-20T01:37:52.538Z,63.10
2023-05-20T01:40:20.423Z,62.90
2023-05-20T01:42:53.513Z,62.90
2023-05-20T01:45:21.726Z,63.20
2023-05-20T01:47:50.235Z,63.20
2023-05-20T01:50:17.856Z,63.50
2023-05-20T01:52:45.439Z,63.00
2023-05-20T01:55:13.039Z,63.10
2023-05-20T01:57:40.768Z,63.20
2023-05-20T02:00:10.026Z,63.40
2023-05-20T02:02:37.849Z,63.60
2023-05-20T02:05:05.926Z,63.50
2023-05-20T02:07:33.467Z,63.30
2023-05-20T02:10:01.157Z,63.40
2023-05-20T02:12:28.733Z,63.60
2023-05-20T02:14:56.323Z,63.80
2023-05-20T02:17:23.843Z,64.40
2023-05-20T02:19:51.518Z,64.00
2023-05-20T02:22:19.160Z,64.10
2023-05-20T02:24:46.773Z,63.80
2023-05-20T02:27:14.521Z,63.80
2023-05-20T02:29:44.576Z,63.80
2023-05-20T02:32:12.790Z,63.60
2023-05-20T02:34:40.417Z,64.10
2023-05-20T02:37:08.053Z,63.70
2023-05-20T02:39:35.840Z,64.10
2023-05-20T02:42:04.955Z,63.60
2023-05-20T02:44:32.697Z,63.60
2023-05-20T02:47:00.220Z,63.60
2023-05-20T02:49:27.839Z,63.50
2023-05-20T02:51:56.064Z,63.50
2023-05-20T02:54:23.656Z,63.90
2023-05-20T02:56:51.189Z,63.50
2023-05-20T02:59:18.749Z,63.30
2023-05-20T03:01:46.453Z,63.50
2023-05-20T03:04:14.151Z,63.50
2023-05-20T03:06:44.843Z,63.70
2023-05-20T03:09:12.438Z,63.40
2023-05-20T03:11:40.069Z,63.50
2023-05-20T03:14:07.602Z,63.60
2023-05-20T03:16:35.735Z,63.60
2023-05-20T03:19:03.437Z,63.70
2023-05-20T03:21:31.047Z,63.50
2023-05-20T03:23:58.632Z,63.80
2023-05-20T03:26:26.258Z,63.60
2023-05-20T03:28:53.963Z,63.70
2023-05-20T03:31:21.678Z,63.80
2023-05-20T03:33:49.422Z,63.80
2023-05-20T03:36:17.097Z,64.00
2023-05-20T03:38:44.634Z,64.10
2023-05-20T03:41:12.330Z,63.90
2023-05-20T03:43:40.262Z,64.10
2023-05-20T03:46:07.929Z,64.10
2023-05-20T03:48:35.499Z,64.20
2023-05-20T03:51:03.754Z,64.40
2023-05-20T03:53:31.667Z,64.40
2023-05-20T03:55:59.191Z,64.50
2023-05-20T03:58:29.283Z,64.40
2023-05-20T04:00:56.878Z,64.30
2023-05-20T04:03:29.200Z,64.60
2023-05-20T04:05:56.824Z,64.50
2023-05-20T04:08:26.298Z,64.70
2023-05-20T04:10:57.659Z,64.70
2023-05-20T04:13:26.280Z,65.30
2023-05-20T04:15:53.921Z,64.60
2023-05-20T04:18:21.651Z,64.60
2023-05-20T04:20:50.365Z,64.80
2023-05-20T04:23:20.970Z,65.10
2023-05-20T04:25:49.143Z,65.00
2023-05-20T04:28:16.730Z,65.10
2023-05-20T04:30:46.969Z,65.10
2023-05-20T04:33:15.224Z,65.30
2023-05-20T04:35:43.210Z,65.20
2023-05-20T04:38:10.740Z,66.00
2023-05-20T04:40:39.365Z,65.40
2023-05-20T04:43:07.093Z,65.50
2023-05-20T04:45:36.143Z,65.40
2023-05-20T04:48:04.375Z,65.60
2023-05-20T04:50:32.011Z,65.70
2023-05-20T04:52:59.945Z,65.80
2023-05-20T04:55:29.035Z,65.80
2023-05-20T04:57:56.562Z,65.80
2023-05-20T05:00:24.234Z,66.00
2023-05-20T05:02:52.007Z,66.10
2023-05-20T05:05:21.186Z,66.30
2023-05-20T05:07:48.873Z,66.30
2023-05-20T05:10:16.627Z,66.60
2023-05-20T05:12:44.172Z,66.70
2023-05-20T05:15:12.141Z,66.70
2023-05-20T05:17:39.688Z,66.90
2023-05-20T05:20:08.922Z,66.90
2023-05-20T05:22:37.359Z,67.10
2023-05-20T05:25:05.055Z,67.20
2023-05-20T05:27:32.889Z,67.30
2023-05-20T05:30:00.457Z,67.70
2023-05-20T05:32:28.363Z,68.00
2023-05-20T05:34:56.293Z,68.00
2023-05-20T05:37:24.030Z,68.00
2023-05-20T05:39:51.690Z,68.40
2023-05-20T05:42:19.284Z,68.50
2023-05-20T05:44:47.864Z,68.50
2023-05-20T05:47:15.951Z,68.60
2023-05-20T05:49:43.607Z,68.50
2023-05-20T05:52:11.209Z,68.30
2023-05-20T05:54:38.783Z,68.50
2023-05-20T05:57:07.987Z,68.90
2023-05-20T05:59:35.534Z,69.00
2023-05-20T06:02:03.199Z,68.80
2023-05-20T06:04:31.061Z,68.90
2023-05-20T06:07:05.018Z,68.90
2023-05-20T06:09:32.570Z,69.10
2023-05-20T06:12:00.240Z,69.10
2023-05-20T06:14:27.900Z,69.10
2023-05-20T06:16:55.532Z,69.30
2023-05-20T06:19:23.443Z,69.30
2023-05-20T06:21:51.122Z,69.30
2023-05-20T06:24:18.707Z,69.50
2023-05-20T06:26:46.432Z,69.40
2023-05-20T06:29:14.195Z,69.20
2023-05-20T06:31:41.769Z,69.20
2023-05-20T06:34:09.328Z,69.30
2023-05-20T06:36:36.869Z,69.40
2023-05-20T06:39:06.748Z,69.50
2023-05-20T06:41:34.271Z,69.40
2023-05-20T06:44:01.801Z,69.40
2023-05-20T06:46:29.600Z,69.50
2023-05-20T06:48:57.335Z,69.60
2023-05-20T06:51:24.903Z,69.50
2023-05-20T06:53:52.509Z,69.60
2023-05-20T06:56:20.238Z,69.60
2023-05-20T06:58:48.139Z,69.50
2023-05-20T07:01:17.966Z,69.60
2023-05-20T07:03:46.068Z,69.60
2023-05-20T07:06:13.779Z,69.60
2023-05-20T07:08:41.509Z,69.70
2023-05-20T07:11:09.112Z,69.80
2023-05-20T07:13:36.702Z,70.00
2023-05-20T07:16:07.220Z,69.90
2023-05-20T07:18:35.192Z,69.80
2023-05-20T07:21:02.838Z,70.20
2023-05-20T07:23:30.572Z,70.00
2023-05-20T07:25:58.217Z,69.90
2023-05-20T07:28:25.974Z,70.20
2023-05-20T07:30:55.334Z,70.20
2023-05-20T07:33:23.992Z,70.30
2023-05-20T07:35:52.390Z,70.30
2023-05-20T07:38:19.971Z,70.40
2023-05-20T07:40:48.161Z,70.60
2023-05-20T07:43:16.135Z,70.60
2023-05-20T07:45:43.712Z,70.80
2023-05-20T07:48:13.367Z,70.60
2023-05-20T07:50:41.356Z,70.60
2023-05-20T07:53:09.026Z,70.90
2023-05-20T07:55:39.660Z,71.00
2023-05-20T07:58:07.453Z,70.90
2023-05-20T08:00:35.194Z,71.00
2023-05-20T08:03:03.163Z,71.20
2023-05-20T08:05:31.026Z,71.30
2023-05-20T08:07:58.594Z,71.20
2023-05-20T08:10:26.268Z,71.20
2023-05-20T08:12:53.831Z,71.40
2023-05-20T08:15:21.492Z,71.40
2023-05-20T08:17:51.902Z,71.40
2023-05-20T08:20:20.241Z,71.50
2023-05-20T08:22:47.879Z,71.70
2023-05-20T08:25:16.433Z,71.70
2023-05-20T08:27:44.264Z,72.00
2023-05-20T08:30:12.172Z,71.90
2023-05-20T08:32:39.894Z,72.00
2023-05-20T08:35:08.822Z,72.00
2023-05-20T08:37:36.497Z,72.00
2023-05-20T08:40:05.511Z,72.30
2023-05-20T08:42:33.222Z,72.00
2023-05-20T08:45:02.218Z,72.70
2023-05-20T08:47:29.803Z,72.20
2023-05-20T08:49:57.406Z,72.30
2023-05-20T08:52:25.582Z,72.60
2023-05-20T08:54:53.676Z,72.30
2023-05-20T08:57:21.745Z,72.50
2023-05-20T08:59:49.436Z,72.60
2023-05-20T09:02:17.879Z,73.10
2023-05-20T09:04:45.528Z,72.70
2023-05-20T09:07:13.215Z,72.40
2023-05-20T09:09:41.504Z,72.60
2023-05-20T09:12:09.189Z,72.50
2023-05-20T09:14:36.732Z,72.50
2023-05-20T09:17:06.277Z,72.30
2023-05-20T09:19:34.255Z,72.50
2023-05-20T09:22:05.498Z,72.60
2023-05-20T09:24:33.071Z,72.50
2023-05-20T09:27:00.667Z,72.60
2023-05-20T09:29:28.444Z,72.40
2023-05-20T09:31:57.169Z,72.40
2023-05-20T09:34:24.807Z,72.30
2023-05-20T09:36:53.200Z,72.20
2023-05-20T09:39:27.518Z,72.30
2023-05-20T09:42:12.742Z,72.30
2023-05-20T09:44:41.431Z,72.30
2023-05-20T09:47:10.078Z,72.20
2023-05-20T09:49:39.918Z,72.10
2023-05-20T09:52:08.029Z,71.80
2023-05-20T09:54:37.075Z,71.60
2023-05-20T09:57:07.640Z,71.60
2023-05-20T09:59:38.675Z,71.30
2023-05-20T10:02:07.093Z,71.20
2023-05-20T10:04:38.185Z,71.00
2023-05-20T10:07:41.203Z,71.00
2023-05-20T10:10:19.180Z,71.00
2023-05-20T10:12:58.642Z,71.10
2023-05-20T10:15:39.887Z,71.10
2023-05-20T10:18:10.421Z,71.00
2023-05-20T10:20:51.171Z,71.20
2023-05-20T10:23:28.099Z,70.90
2023-05-20T10:25:57.505Z,71.10
2023-05-20T10:28:34.076Z,71.30
2023-05-20T10:31:01.827Z,71.30
2023-05-20T10:33:30.480Z,71.60
2023-05-20T10:36:01.648Z,71.40
2023-05-20T10:38:29.312Z,71.30
2023-05-20T10:41:08.035Z,71.20
2023-05-20T10:43:35.704Z,71.80
2023-05-20T10:46:07.426Z,71.30
2023-05-20T10:48:43.516Z,71.20
2023-05-20T10:51:14.999Z,71.00
2023-05-20T10:53:46.586Z,70.70
2023-05-20T10:56:22.021Z,70.60
2023-05-20T10:58:50.114Z,70.50
2023-05-20T11:01:19.426Z,70.50
2023-05-20T11:03:48.724Z,70.70
2023-05-20T11:06:18.817Z,70.60
2023-05-20T11:08:46.949Z,70.60
2023-05-20T11:11:15.544Z,70.50
2023-05-20T11:13:43.283Z,70.30
2023-05-20T11:16:11.282Z,70.40
2023-05-20T11:18:38.907Z,70.10
2023-05-20T11:21:06.974Z,70.10
2023-05-20T11:23:34.592Z,70.30
2023-05-20T11:26:02.661Z,70.40
2023-05-20T11:28:33.443Z,70.40
2023-05-20T11:31:01.491Z,70.30
2023-05-20T11:33:33.728Z,70.30
2023-05-20T11:36:03.600Z,70.30
2023-05-20T11:38:32.928Z,70.90
2023-05-20T11:41:00.463Z,70.30
2023-05-20T11:43:28.192Z,70.30
2023-05-20T11:45:59.707Z,70.30
2023-05-20T11:48:27.794Z,70.20
2023-05-20T11:50:56.970Z,70.20
2023-05-20T11:53:25.565Z,70.10
2023-05-20T11:55:58.891Z,70.30
2023-05-20T11:58:28.276Z,70.30
2023-05-20T12:01:05.202Z,70.20
2023-05-20T12:03:41.773Z,70.20
2023-05-20T12:06:15.516Z,70.20
2023-05-20T12:08:43.112Z,70.30
2023-05-20T12:11:10.696Z,70.30
2023-05-20T12:13:38.566Z,70.30
2023-05-20T12:16:06.616Z,70.40
2023-05-20T12:18:34.642Z,70.30
2023-05-20T12:21:02.449Z,70.20
2023-05-20T12:23:34.390Z,70.30
2023-05-20T12:26:02.171Z,70.20
2023-05-20T12:28:29.840Z,70.10
2023-05-20T12:30:57.458Z,70.30
2023-05-20T12:33:25.012Z,69.90
2023-05-20T12:35:52.554Z,69.90
2023-05-20T12:38:20.572Z,69.70
2023-05-20T12:40:48.170Z,69.80
2023-05-20T12:43:15.995Z,69.40
2023-05-20T12:45:43.570Z,69.10
2023-05-20T12:48:11.322Z,68.90
2023-05-20T12:50:38.957Z,69.10
2023-05-20T12:53:06.543Z,69.20
2023-05-20T12:55:34.171Z,69.10
2023-05-20T12:58:01.802Z,69.10
2023-05-20T13:00:29.476Z,69.10
2023-05-20T13:02:57.412Z,69.00
2023-05-20T13:05:25.023Z,69.00
2023-05-20T13:07:52.687Z,68.70
2023-05-20T13:10:20.426Z,68.70
2023-05-20T13:12:48.096Z,68.80
2023-05-20T13:15:15.896Z,68.80
2023-05-20T13:17:43.760Z,68.90
2023-05-20T13:20:12.276Z,68.80
2023-05-20T13:22:39.903Z,69.00
2023-05-20T13:25:08.125Z,69.00
2023-05-20T13:27:35.806Z,68.80
2023-05-20T13:30:04.433Z,68.90
2023-05-20T13:32:32.017Z,68.80
2023-05-20T13:35:00.144Z,68.20
2023-05-20T13:37:27.772Z,68.40
2023-05-20T13:39:55.401Z,67.90
2023-05-20T13:42:22.985Z,67.50
2023-05-20T13:44:50.545Z,67.30
2023-05-20T13:47:18.146Z,67.10
2023-05-20T13:49:45.705Z,66.90
2023-05-20T13:52:13.297Z,67.10
2023-05-20T13:54:43.188Z,67.10
2023-05-20T13:57:10.974Z,67.20
2023-05-20T13:59:43.036Z,67.10
2023-05-20T14:02:11.300Z,67.00
2023-05-20T14:04:40.221Z,66.70
2023-05-20T14:07:09.794Z,66.90
2023-05-20T14:09:38.199Z,66.60
2023-05-20T14:12:06.610Z,66.60
2023-05-20T14:14:34.314Z,66.90
2023-05-20T14:17:01.968Z,66.90
2023-05-20T14:19:30.370Z,66.30
2023-05-20T14:22:01.460Z,61.20
2023-05-20T14:24:29.273Z,61.20
2023-05-20T14:26:57.023Z,60.10
2023-05-20T14:29:24.708Z,60.60
2023-05-20T14:31:52.428Z,60.40
2023-05-20T14:34:20.050Z,60.90
2023-05-20T14:36:48.037Z,63.10
2023-05-20T14:39:15.654Z,63.90
2023-05-20T14:41:43.211Z,64.20
2023-05-20T14:44:10.951Z,64.50
2023-05-20T14:46:38.652Z,64.50
2023-05-20T14:49:06.303Z,64.90
2023-05-20T14:51:33.870Z,64.70
2023-05-20T14:54:01.516Z,65.20
2023-05-20T14:56:29.243Z,64.50
2023-05-20T14:58:56.821Z,64.40
2023-05-20T15:01:24.387Z,64.60
2023-05-20T15:03:52.033Z,65.00
2023-05-20T15:06:19.805Z,64.70
2023-05-20T15:08:47.854Z,64.80
2023-05-20T15:11:15.444Z,64.80
2023-05-20T15:13:46.824Z,65.10
2023-05-20T15:16:14.660Z,64.80
2023-05-20T15:18:42.507Z,65.20
2023-05-20T15:21:10.081Z,64.90
2023-05-20T15:23:37.698Z,65.70
2023-05-20T15:26:05.394Z,65.10
2023-05-20T15:28:33.097Z,65.50
2023-05-20T15:31:00.856Z,65.00
2023-05-20T15:33:28.524Z,65.20
2023-05-20T15:35:56.264Z,64.90
2023-05-20T15:38:23.820Z,64.50
2023-05-20T15:40:51.447Z,64.80
2023-05-20T15:43:19.830Z,65.00
2023-05-20T15:45:48.477Z,65.40
2023-05-20T15:48:16.574Z,64.80
2023-05-20T15:50:44.192Z,65.70
2023-05-20T15:53:11.836Z,65.80
2023-05-20T15:55:39.385Z,65.40
2023-05-20T15:58:06.986Z,65.20
2023-05-20T16:00:34.686Z,65.50
2023-05-20T16:03:02.761Z,65.80
2023-05-20T16:05:30.425Z,65.70
2023-05-20T16:07:57.969Z,65.30
2023-05-20T16:10:26.243Z,64.90
2023-05-20T16:12:53.863Z,64.30
2023-05-20T16:15:21.462Z,64.70
2023-05-20T16:17:49.066Z,64.40
2023-05-20T16:20:16.680Z,65.50
2023-05-20T16:22:44.223Z,64.00
2023-05-20T16:25:12.171Z,64.10
2023-05-20T16:27:40.071Z,64.10
2023-05-20T16:30:08.404Z,64.00
2023-05-20T16:32:36.019Z,64.50
2023-05-20T16:35:03.700Z,65.00
2023-05-20T16:37:31.607Z,63.80
2023-05-20T16:39:59.345Z,63.70
2023-05-20T16:42:27.017Z,64.10
2023-05-20T16:44:54.680Z,64.10
2023-05-20T16:47:22.302Z,64.50
2023-05-20T16:49:49.986Z,64.70
2023-05-20T16:52:17.621Z,64.60
2023-05-20T16:54:45.268Z,64.20
2023-05-20T16:57:14.350Z,64.00
2023-05-20T16:59:42.161Z,64.70
2023-05-20T17:02:09.706Z,64.20
2023-05-20T17:04:37.537Z,63.80
2023-05-20T17:07:05.329Z,64.30
2023-05-20T17:09:32.913Z,64.50
2023-05-20T17:12:00.507Z,64.50
2023-05-20T17:14:28.052Z,64.60
2023-05-20T17:16:55.701Z,64.00
2023-05-20T17:19:23.476Z,64.00
2023-05-20T17:21:51.450Z,64.40
2023-05-20T17:24:19.029Z,64.30
2023-05-20T17:26:46.740Z,64.60
2023-05-20T17:29:14.282Z,64.30
2023-05-20T17:31:45.183Z,64.50
2023-05-20T17:34:12.893Z,63.30
2023-05-20T17:36:40.716Z,64.30
2023-05-20T17:39:10.474Z,64.20
2023-05-20T17:41:38.143Z,64.40
2023-05-20T17:44:06.109Z,64.10
2023-05-20T17:46:33.747Z,64.20
2023-05-20T17:49:01.579Z,63.30
2023-05-20T17:51:29.251Z,63.80
2023-05-20T17:53:57.168Z,63.60
2023-05-20T17:56:24.957Z,64.00
2023-05-20T17:58:54.169Z,63.70
2023-05-20T18:01:23.720Z,63.80
2023-05-20T18:03:51.737Z,63.10
2023-05-20T18:06:19.623Z,63.50
2023-05-20T18:08:47.293Z,63.60
2023-05-20T18:11:14.906Z,63.60
2023-05-20T18:13:42.431Z,63.30
2023-05-20T18:16:10.096Z,63.70
2023-05-20T18:18:37.722Z,63.60
2023-05-20T18:21:07.731Z,63.60
2023-05-20T18:23:35.333Z,63.40
2023-05-20T18:26:09.431Z,62.90
2023-05-20T18:28:37.076Z,63.30
2023-05-20T18:31:04.698Z,63.50
2023-05-20T18:33:32.521Z,63.20
2023-05-20T18:36:00.211Z,62.80
2023-05-20T18:38:27.797Z,62.60
2023-05-20T18:40:55.306Z,62.20
2023-05-20T18:43:23.006Z,62.50
2023-05-20T18:45:50.759Z,62.10
2023-05-20T18:48:26.127Z,62.50
2023-05-20T18:50:55.311Z,62.60
2023-05-20T18:53:23.901Z,62.80
2023-05-20T18:55:51.540Z,62.90
2023-05-20T18:58:19.074Z,63.20
2023-05-20T19:00:46.740Z,63.70
2023-05-20T19:03:14.293Z,64.20
2023-05-20T19:05:41.962Z,64.30
2023-05-20T19:08:09.613Z,64.20
2023-05-20T19:10:37.211Z,64.30
2023-05-20T19:13:04.744Z,65.10
2023-05-20T19:15:32.363Z,64.50
2023-05-20T19:18:00.221Z,64.50
2023-05-20T19:20:27.748Z,64.80
2023-05-20T19:22:55.345Z,64.70
2023-05-20T19:25:22.914Z,64.80
2023-05-20T19:27:50.855Z,64.70
2023-05-20T19:30:18.403Z,64.70
2023-05-20T19:32:46.342Z,64.70
2023-05-20T19:35:13.991Z,64.40
2023-05-20T19:37:41.533Z,64.50
2023-05-20T19:40:09.661Z,64.50
2023-05-20T19:42:37.244Z,64.40
2023-05-20T19:45:05.297Z,64.50
2023-05-20T19:47:33.092Z,64.60
2023-05-20T19:50:00.764Z,64.60
2023-05-20T19:52:28.424Z,64.40
2023-05-20T19:54:56.032Z,64.20
2023-05-20T19:57:23.737Z,64.40
2023-05-20T19:59:53.533Z,64.50
2023-05-20T20:02:21.485Z,64.40
2023-05-20T20:04:49.880Z,64.20
2023-05-20T20:07:17.771Z,64.50
2023-05-20T20:09:46.141Z,64.60
2023-05-20T20:12:13.742Z,64.20
2023-05-20T20:14:41.529Z,64.30
2023-05-20T20:17:13.782Z,64.50
2023-05-20T20:19:42.537Z,63.90
2023-05-20T20:22:10.095Z,64.20
2023-05-20T20:24:37.919Z,64.30
2023-05-20T20:27:06.535Z,64.40
2023-05-20T20:29:34.314Z,64.30
2023-05-20T20:32:02.583Z,64.10
2023-05-20T20:34:30.196Z,64.00
2023-05-20T20:37:01.699Z,64.00
2023-05-20T20:39:30.023Z,64.10
2023-05-20T20:41:59.009Z,63.70
2023-05-20T20:44:26.924Z,64.00
2023-05-20T20:46:55.196Z,63.60
2023-05-20T20:49:28.291Z,64.10
2023-05-20T20:51:56.277Z,64.10
2023-05-20T20:54:23.871Z,63.80
2023-05-20T20:56:56.839Z,63.90
2023-05-20T20:59:27.084Z,63.60
2023-05-20T21:01:55.076Z,64.00
2023-05-20T21:04:22.685Z,64.00
2023-05-20T21:06:50.283Z,63.60
2023-05-20T21:09:18.099Z,63.60
2023-05-20T21:11:46.166Z,63.80
2023-05-20T21:14:13.965Z,63.60
2023-05-20T21:16:43.420Z,64.00
2023-05-20T21:19:11.200Z,63.80
2023-05-20T21:21:38.823Z,63.70
2023-05-20T21:24:06.723Z,63.70
2023-05-20T21:26:40.384Z,63.30
2023-05-20T21:29:10.223Z,63.90
2023-05-20T21:31:38.110Z,64.00
2023-05-20T21:34:05.733Z,63.70
2023-05-20T21:36:33.283Z,63.80
2023-05-20T21:39:00.966Z,63.90
2023-05-20T21:41:28.513Z,63.90
2023-05-20T21:43:56.190Z,63.90
2023-05-20T21:46:23.890Z,63.50
2023-05-20T21:48:51.466Z,63.70
2023-05-20T21:51:19.071Z,63.80
2023-05-20T21:53:46.785Z,63.80
2023-05-20T21:56:14.370Z,63.90
2023-05-20T21:58:42.196Z,63.80
2023-05-20T22:01:10.372Z,63.60
2023-05-20T22:03:40.151Z,63.60
2023-05-20T22:06:08.155Z,63.60
2023-05-20T22:08:35.755Z,63.40
2023-05-20T22:11:07.672Z,63.80
2023-05-20T22:13:36.468Z,63.50
2023-05-20T22:16:05.170Z,63.50
2023-05-20T22:18:32.912Z,63.70
2023-05-20T22:21:01.385Z,63.50
2023-05-20T22:23:29.435Z,63.40
2023-05-20T22:25:57.126Z,63.60
2023-05-20T22:28:26.422Z,63.80
2023-05-20T22:30:54.992Z,63.00
2023-05-20T22:33:23.135Z,63.60
2023-05-20T22:35:51.755Z,62.90
2023-05-20T22:38:19.756Z,63.10
2023-05-20T22:40:47.452Z,63.60
2023-05-20T22:43:24.050Z,63.50
2023-05-20T22:45:51.713Z,63.70
2023-05-20T22:48:23.215Z,63.60
2023-05-20T22:50:51.682Z,63.50
2023-05-20T22:53:19.560Z,63.90
2023-05-20T22:55:47.286Z,63.40
2023-05-20T22:58:15.549Z,63.20
2023-05-20T23:00:44.764Z,63.80
2023-05-20T23:03:12.864Z,63.80
2023-05-20T23:05:40.647Z,64.00
2023-05-20T23:08:08.262Z,63.80
2023-05-20T23:10:36.059Z,63.80
2023-05-20T23:13:03.637Z,64.20
2023-05-20T23:15:31.350Z,64.00
2023-05-20T23:17:58.888Z,64.10
2023-05-20T23:20:29.505Z,64.00
2023-05-20T23:22:57.263Z,64.00
2023-05-20T23:25:25.089Z,64.20
2023-05-20T23:27:52.705Z,64.20
2023-05-20T23:30:20.380Z,64.20
2023-05-20T23:32:48.089Z,64.00
2023-05-20T23:35:16.238Z,64.20
2023-05-20T23:37:43.765Z,64.20
2023-05-20T23:40:11.973Z,64.20
2023-05-20T23:42:40.407Z,64.20
2023-05-20T23:45:08.453Z,64.10
2023-05-20T23:47:38.128Z,64.20
2023-05-20T23:50:06.090Z,64.00
2023-05-20T23:52:33.658Z,64.00
2023-05-20T23:55:01.295Z,63.80
2023-05-20T23:57:28.869Z,64.00
2023-05-20T23:59:56.415Z,63.80
